Terminal Aerodrome Forecast
Issued by NWS

Home | Current Version | Previous Version | Text Only | Print | Product List | Glossary Off
Versions: 1 2 3 4 5 6 7 8 9 10 11 12 13 14 15 16 17

508
FTUS43 KBIS 212154 AAB
TAFMOT
TAF AMD
KMOT 212154Z 2122/2218 26025G34KT P6SM OVC030 WS020/29030KT
     FM220300 27012KT P6SM SCT110 WS020/30035KT
     FM220800 24010KT P6SM FEW250
     FM221600 22017G25KT P6SM BKN150=

USA.gov is the U.S. government's official web portal to all federal, state and local government web resources and services.